Time;durP1;ratioP1;P1;durP2;ratioP2;P2;SDS_P1;SDS_P2;PMS_P1;PMS_P2;Temp;Humidity;BMP_temperature;BMP_pressure;BME280_temperature;BME280_humidity;BME280_pressure;Samples;Min_cycle;Max_cycle;Signal;HPM_P1;HPM_P2
2022/09/16 00:02:24;;;;;;;;;5.00;5.00;;;;;-144.76;100.00;60493.00;5050806;28;45170;-80
2022/09/16 00:04:49;;;;;;;;;4.00;3.75;;;;;-144.76;100.00;60493.00;5051268;28;44957;-80
2022/09/16 00:07:15;;;;;;;;;4.67;4.67;;;;;-144.76;100.00;60493.00;5050704;28;49405;-80
2022/09/16 00:09:40;;;;;;;;;4.00;4.00;;;;;-144.76;100.00;60493.00;5050641;28;45061;-81
2022/09/16 00:12:05;;;;;;;;;4.33;4.33;;;;;-144.76;100.00;60493.00;5048996;28;62024;-81
2022/09/16 00:14:31;;;;;;;;;4.75;4.75;;;;;-144.76;100.00;60493.00;5050637;28;44961;-80
2022/09/16 00:16:56;;;;;;;;;5.50;5.25;;;;;-144.76;100.00;60493.00;5050865;28;44911;-80
2022/09/16 00:19:21;;;;;;;;;2.67;2.67;;;;;-144.76;100.00;60493.00;5049906;28;61227;-80
2022/09/16 00:21:47;;;;;;;;;4.67;4.67;;;;;-144.76;100.00;60493.00;5050318;28;57433;-80
2022/09/16 00:24:14;;;;;;;;;4.00;3.25;;;;;-144.76;100.00;60493.00;5050706;28;45201;-81
2022/09/16 00:26:40;;;;;;;;;4.00;4.00;;;;;-144.76;100.00;60493.00;5031884;28;45095;-80
2022/09/16 00:29:05;;;;;;;;;7.00;5.50;;;;;-144.76;100.00;60493.00;5050424;28;45914;-80
2022/09/16 00:31:31;;;;;;;;;4.75;4.25;;;;;-144.76;100.00;60493.00;5050283;28;45014;-80
2022/09/16 00:33:56;;;;;;;;;5.00;5.00;;;;;-144.76;100.00;60493.00;5051022;28;45343;-80
2022/09/16 00:36:21;;;;;;;;;4.00;4.00;;;;;-144.76;100.00;60493.00;5049652;28;64619;-80
2022/09/16 00:38:51;;;;;;;;;4.50;4.50;;;;;-144.76;100.00;60493.00;5050215;28;45420;-81
2022/09/16 00:41:19;;;;;;;;;7.25;5.50;;;;;-144.76;100.00;60493.00;5049995;28;45499;-80
2022/09/16 00:44:04;;;;;;;;;4.50;4.25;;;;;-144.76;100.00;60493.00;5049822;28;45104;-81
2022/09/16 00:46:50;;;;;;;;;6.25;5.50;;;;;-144.76;100.00;60493.00;5050319;28;45086;-80
2022/09/16 00:49:24;;;;;;;;;4.50;4.25;;;;;-144.76;100.00;60493.00;5049647;28;45233;-80
2022/09/16 00:51:56;;;;;;;;;3.50;3.50;;;;;-144.76;100.00;60493.00;5032030;28;45552;-81
2022/09/16 00:54:22;;;;;;;;;5.50;5.50;;;;;-144.76;100.00;60493.00;5050089;28;44941;-81
2022/09/16 00:56:52;;;;;;;;;6.25;5.25;;;;;-144.76;100.00;60493.00;5049484;28;45128;-81
2022/09/16 00:59:33;;;;;;;;;4.00;4.00;;;;;-144.76;100.00;60493.00;5049964;28;45139;-80
2022/09/16 01:02:08;;;;;;;;;5.00;4.50;;;;;-144.76;100.00;60493.00;5050345;28;45045;-81
2022/09/16 01:04:46;;;;;;;;;5.00;4.50;;;;;-144.76;100.00;60493.00;5050274;28;44960;-80
2022/09/16 01:07:12;;;;;;;;;5.75;5.00;;;;;-144.76;100.00;60493.00;5050626;28;45040;-81
2022/09/16 01:09:38;;;;;;;;;7.50;6.00;;;;;-144.76;100.00;60493.00;5049858;28;45959;-81
2022/09/16 01:12:04;;;;;;;;;5.25;5.25;;;;;-144.76;100.00;60493.00;5049867;28;45679;-80
2022/09/16 01:17:27;;;;;;;;;4.75;4.75;;;;;-144.76;100.00;60493.00;5050146;28;45077;-81
2022/09/16 01:19:57;;;;;;;;;4.25;3.75;;;;;-144.76;100.00;60493.00;5050103;28;45776;-81
2022/09/16 01:22:41;;;;;;;;;5.75;5.25;;;;;-144.76;100.00;60493.00;5050090;28;45128;-81
2022/09/16 01:25:15;;;;;;;;;6.75;6.25;;;;;-144.76;100.00;60493.00;5053534;28;45131;-80
2022/09/16 01:28:14;;;;;;;;;5.00;5.00;;;;;-144.76;100.00;60493.00;5053154;28;45251;-81
2022/09/16 01:31:02;;;;;;;;;6.00;6.00;;;;;-144.76;100.00;60493.00;5052593;28;46247;-80
2022/09/16 01:33:27;;;;;;;;;7.00;6.50;;;;;-144.76;100.00;60493.00;5044639;28;45780;-81
2022/09/16 01:36:07;;;;;;;;;6.00;6.00;;;;;-144.76;100.00;60493.00;5053425;28;45091;-80
2022/09/16 01:38:40;;;;;;;;;5.00;5.00;;;;;-144.76;100.00;60493.00;5034643;28;45213;-81
2022/09/16 01:41:28;;;;;;;;;6.50;5.75;;;;;-144.76;100.00;60493.00;5052472;28;55424;-80
2022/09/16 01:44:01;;;;;;;;;6.00;6.00;;;;;-144.76;100.00;60493.00;5053078;28;45132;-81
2022/09/16 01:46:48;;;;;;;;;7.25;7.25;;;;;-144.76;100.00;60493.00;5053193;28;44967;-81
2022/09/16 01:49:38;;;;;;;;;5.00;5.00;;;;;-144.76;100.00;60493.00;5053425;28;45029;-80
2022/09/16 01:52:25;;;;;;;;;5.50;5.50;;;;;-144.76;100.00;60493.00;5052692;28;45122;-80
2022/09/16 01:55:03;;;;;;;;;6.25;5.25;;;;;-144.76;100.00;60493.00;5034828;28;45227;-80
2022/09/16 01:57:57;;;;;;;;;5.75;4.75;;;;;-144.76;100.00;60493.00;5051865;28;45058;-81
2022/09/16 02:00:23;;;;;;;;;7.25;7.00;;;;;-144.76;100.00;60493.00;5045041;28;45274;-82
2022/09/16 02:03:01;;;;;;;;;4.25;4.25;;;;;-144.76;100.00;60493.00;5034265;28;47598;-80
2022/09/16 02:05:41;;;;;;;;;6.25;6.25;;;;;-144.76;100.00;60493.00;5052750;28;45239;-80
2022/09/16 02:08:19;;;;;;;;;6.25;6.25;;;;;-144.76;100.00;60493.00;5052932;28;45089;-81
2022/09/16 02:10:57;;;;;;;;;4.50;3.75;;;;;-144.76;100.00;60493.00;5053320;28;45149;-81
2022/09/16 02:13:28;;;;;;;;;5.75;5.50;;;;;-144.76;100.00;60493.00;5032871;28;47464;-81
2022/09/16 02:16:00;;;;;;;;;6.50;6.50;;;;;-144.76;100.00;60493.00;5052656;28;45529;-81
2022/09/16 02:18:32;;;;;;;;;5.75;5.50;;;;;-144.76;100.00;60493.00;5052342;28;45034;-80
2022/09/16 02:21:02;;;;;;;;;8.50;6.75;;;;;-144.76;100.00;60493.00;5052863;28;44897;-80
2022/09/16 02:23:38;;;;;;;;;5.00;5.00;;;;;-144.76;100.00;60493.00;5052040;28;46129;-81
2022/09/16 02:26:07;;;;;;;;;6.75;6.50;;;;;-144.76;100.00;60493.00;5052564;28;44997;-81
2022/09/16 02:28:38;;;;;;;;;7.00;6.25;;;;;-144.76;100.00;60493.00;5051679;28;44921;-81
2022/09/16 02:31:06;;;;;;;;;7.00;7.00;;;;;-144.76;100.00;60493.00;5052384;28;45159;-82
2022/09/16 02:33:51;;;;;;;;;6.50;5.50;;;;;-144.76;100.00;60493.00;5051851;28;45501;-81
2022/09/16 02:36:20;;;;;;;;;10.00;8.00;;;;;-144.76;100.00;60493.00;5050962;28;45520;-81
2022/09/16 02:38:51;;;;;;;;;7.25;6.50;;;;;-144.76;100.00;60493.00;5052180;28;44990;-81
2022/09/16 02:41:16;;;;;;;;;7.50;7.25;;;;;-144.76;100.00;60493.00;5052136;28;45364;-80
2022/09/16 02:43:44;;;;;;;;;6.00;6.00;;;;;-144.76;100.00;60493.00;5051781;28;45516;-80
2022/09/16 02:46:29;;;;;;;;;3.75;3.75;;;;;-144.76;100.00;60493.00;5052503;28;45423;-80
2022/09/16 02:49:06;;;;;;;;;8.50;7.75;;;;;-144.76;100.00;60493.00;5051752;28;45175;-80
2022/09/16 02:51:40;;;;;;;;;7.75;7.75;;;;;-144.76;100.00;60493.00;5052198;28;45192;-80
2022/09/16 02:54:27;;;;;;;;;6.25;6.25;;;;;-144.76;100.00;60493.00;5052399;28;45810;-81
2022/09/16 02:56:55;;;;;;;;;9.50;8.50;;;;;-144.76;100.00;60493.00;5044468;28;45253;-81
2022/09/16 02:59:21;;;;;;;;;6.75;6.25;;;;;-144.76;100.00;60493.00;5051726;28;45120;-81
2022/09/16 03:01:46;;;;;;;;;6.00;6.00;;;;;-144.76;100.00;60493.00;5051680;28;45160;-81
2022/09/16 03:04:18;;;;;;;;;8.00;7.00;;;;;-144.76;100.00;60493.00;5051590;28;45003;-81
2022/09/16 03:06:45;;;;;;;;;7.50;6.25;;;;;-144.76;100.00;60493.00;5051966;28;45542;-81
2022/09/16 03:09:12;;;;;;;;;8.50;7.00;;;;;-144.76;100.00;60493.00;5051834;28;45146;-81
2022/09/16 03:11:52;;;;;;;;;9.50;8.50;;;;;-144.76;100.00;60493.00;5051519;28;45216;-81
2022/09/16 03:15:01;;;;;;;;;5.25;5.25;;;;;-144.76;100.00;60493.00;5051357;28;45183;-81
2022/09/16 03:17:45;;;;;;;;;8.00;7.75;;;;;-144.76;100.00;60493.00;5051577;28;45597;-80
2022/09/16 03:20:35;;;;;;;;;8.00;6.50;;;;;-144.76;100.00;60493.00;5051802;28;45056;-81
2022/09/16 03:23:06;;;;;;;;;8.00;7.00;;;;;-144.76;100.00;60493.00;5051189;28;45051;-81
2022/09/16 03:25:34;;;;;;;;;8.00;8.00;;;;;-144.76;100.00;60493.00;5051823;28;45244;-80
2022/09/16 03:28:09;;;;;;;;;7.50;7.00;;;;;-144.76;100.00;60493.00;5050575;28;45097;-81
2022/09/16 03:30:43;;;;;;;;;7.00;6.25;;;;;-144.76;100.00;60493.00;5050642;28;45425;-81
2022/09/16 03:33:37;;;;;;;;;8.00;7.00;;;;;-144.76;100.00;60493.00;5051535;28;45044;-81
2022/09/16 03:36:06;;;;;;;;;9.25;8.50;;;;;-144.76;100.00;60493.00;5019015;28;45108;-81
2022/09/16 03:38:34;;;;;;;;;7.50;6.75;;;;;-144.76;100.00;60493.00;5050879;28;45162;-80
2022/09/16 03:41:03;;;;;;;;;6.75;6.75;;;;;-144.76;100.00;60493.00;5051588;28;45016;-81
2022/09/16 03:43:28;;;;;;;;;10.50;9.50;;;;;-144.76;100.00;60493.00;5050448;28;45068;-80
2022/09/16 03:45:54;;;;;;;;;7.00;6.25;;;;;-144.76;100.00;60493.00;5050581;28;45906;-81
2022/09/16 03:48:19;;;;;;;;;8.00;8.00;;;;;-144.76;100.00;60493.00;5051056;28;45019;-81
2022/09/16 03:50:44;;;;;;;;;9.25;8.50;;;;;-144.76;100.00;60493.00;5050775;28;49194;-81
2022/09/16 03:53:10;;;;;;;;;7.75;7.75;;;;;-144.76;100.00;60493.00;5051033;28;45279;-80
2022/09/16 03:55:35;;;;;;;;;8.25;8.00;;;;;-144.76;100.00;60493.00;5051715;28;45353;-81
2022/09/16 03:58:00;;;;;;;;;7.25;6.75;;;;;-144.76;100.00;60493.00;5050282;28;45148;-81
2022/09/16 04:00:27;;;;;;;;;9.00;9.00;;;;;-144.76;100.00;60493.00;5050683;28;52870;-80
2022/09/16 04:02:53;;;;;;;;;7.75;7.50;;;;;-144.76;100.00;60493.00;5050848;28;45148;-82
2022/09/16 04:05:18;;;;;;;;;8.00;8.00;;;;;-144.76;100.00;60493.00;5050813;28;45037;-81
2022/09/16 04:07:43;;;;;;;;;9.00;7.00;;;;;-144.76;100.00;60493.00;5049899;28;57335;-81
2022/09/16 04:10:11;;;;;;;;;8.25;8.00;;;;;-144.76;100.00;60493.00;5050659;28;45009;-81
2022/09/16 04:12:36;;;;;;;;;8.00;7.00;;;;;-144.76;100.00;60493.00;5049792;28;45250;-80
2022/09/16 04:15:02;;;;;;;;;7.50;7.00;;;;;-144.76;100.00;60493.00;5050772;28;45090;-81
2022/09/16 04:17:31;;;;;;;;;7.00;7.00;;;;;-144.76;100.00;60493.00;5050961;28;45153;-81
2022/09/16 04:19:56;;;;;;;;;7.00;7.00;;;;;-144.76;100.00;60493.00;5050564;28;45077;-82
2022/09/16 04:22:22;;;;;;;;;8.75;8.75;;;;;-144.76;100.00;60493.00;5051258;28;45194;-81
2022/09/16 04:24:47;;;;;;;;;8.33;8.00;;;;;-144.76;100.00;60493.00;5050432;28;54926;-81
2022/09/16 04:27:12;;;;;;;;;8.50;8.00;;;;;-144.76;100.00;60493.00;5050099;28;45072;-81
2022/09/16 04:29:38;;;;;;;;;10.00;9.25;;;;;-144.76;100.00;60493.00;5050119;28;45484;-81
2022/09/16 04:32:03;;;;;;;;;8.50;7.00;;;;;-144.76;100.00;60493.00;5050312;28;44981;-81
2022/09/16 04:34:31;;;;;;;;;7.00;7.00;;;;;-144.76;100.00;60493.00;5032445;28;46650;-81
2022/09/16 04:36:56;;;;;;;;;8.00;8.00;;;;;-144.76;100.00;60493.00;5050286;28;45615;-81
2022/09/16 04:39:22;;;;;;;;;8.00;8.00;;;;;-144.76;100.00;60493.00;5050846;28;45136;-80
2022/09/16 04:41:47;;;;;;;;;10.00;9.33;;;;;-144.76;100.00;60493.00;5049592;28;67232;-80
2022/09/16 04:44:13;;;;;;;;;5.50;5.50;;;;;-144.76;100.00;60493.00;5050248;28;45670;-81
2022/09/16 04:46:38;;;;;;;;;8.00;7.25;;;;;-144.76;100.00;60493.00;5050039;28;45129;-81
2022/09/16 04:49:04;;;;;;;;;7.00;7.00;;;;;-144.76;100.00;60493.00;5050026;28;53899;-82
2022/09/16 04:51:31;;;;;;;;;7.50;7.00;;;;;-144.76;100.00;60493.00;5050469;28;44899;-82
2022/09/16 04:53:57;;;;;;;;;9.50;9.50;;;;;-144.76;100.00;60493.00;5050327;28;46069;-82
2022/09/16 04:56:29;;;;;;;;;7.25;6.75;;;;;-144.76;100.00;60493.00;5050389;28;45183;-80
2022/09/16 04:58:57;;;;;;;;;6.00;6.00;;;;;-144.76;100.00;60493.00;5053469;28;45035;-81
2022/09/16 05:01:25;;;;;;;;;7.00;7.00;;;;;-144.76;100.00;60493.00;5053755;28;45049;-81
2022/09/16 05:03:53;;;;;;;;;8.75;8.00;;;;;-144.76;100.00;60493.00;5053386;28;45092;-81
2022/09/16 05:06:21;;;;;;;;;8.00;7.50;;;;;-144.76;100.00;60493.00;5053625;28;45218;-81
2022/09/16 05:08:48;;;;;;;;;7.00;6.25;;;;;-144.76;100.00;60493.00;5054411;28;45179;-80
2022/09/16 05:11:17;;;;;;;;;7.25;6.50;;;;;-144.76;100.00;60493.00;5053986;28;45024;-81
2022/09/16 05:13:42;;;;;;;;;6.25;6.00;;;;;-144.76;100.00;60493.00;5034209;28;46646;-82
2022/09/16 05:16:13;;;;;;;;;7.00;6.50;;;;;-144.76;100.00;60493.00;5035297;28;44937;-81
2022/09/16 05:18:41;;;;;;;;;10.25;9.50;;;;;-144.76;100.00;60493.00;5053676;28;45188;-82
2022/09/16 05:21:09;;;;;;;;;7.75;7.00;;;;;-144.76;100.00;60493.00;5053466;28;45018;-81
2022/09/16 05:23:36;;;;;;;;;9.50;8.25;;;;;-144.76;100.00;60493.00;5053272;28;45288;-81
2022/09/16 05:26:11;;;;;;;;;10.00;9.00;;;;;-144.76;100.00;60493.00;5053213;28;45116;-82
2022/09/16 05:28:37;;;;;;;;;7.50;7.50;;;;;-144.76;100.00;60493.00;5053201;28;45030;-81
2022/09/16 05:31:13;;;;;;;;;10.00;9.00;;;;;-144.76;100.00;60493.00;5053450;28;45218;-81
2022/09/16 05:33:41;;;;;;;;;8.25;8.25;;;;;-144.76;100.00;60493.00;5053182;28;45812;-80
2022/09/16 05:36:14;;;;;;;;;11.00;10.00;;;;;-144.76;100.00;60493.00;5052987;28;45710;-81
2022/09/16 05:38:40;;;;;;;;;11.50;9.50;;;;;-144.76;100.00;60493.00;5053410;28;44963;-81
2022/09/16 05:41:06;;;;;;;;;11.50;10.75;;;;;-144.76;100.00;60493.00;5053215;28;45116;-81
2022/09/16 05:43:33;;;;;;;;;9.75;9.00;;;;;-144.76;100.00;60493.00;5051059;28;45800;-81
2022/09/16 05:45:58;;;;;;;;;12.00;9.75;;;;;-144.76;100.00;60493.00;5035223;28;45344;-82
2022/09/16 05:48:24;;;;;;;;;10.25;10.00;;;;;-144.76;100.00;60493.00;5053050;28;45012;-81
2022/09/16 05:51:10;;;;;;;;;9.75;8.75;;;;;-144.76;100.00;60493.00;5053189;28;44953;-81
2022/09/16 05:53:35;;;;;;;;;11.00;11.00;;;;;-144.76;100.00;60493.00;5052816;28;45537;-80
2022/09/16 05:56:04;;;;;;;;;9.25;8.75;;;;;-144.76;100.00;60493.00;5053108;28;45159;-81
2022/09/16 05:58:31;;;;;;;;;11.00;11.00;;;;;-144.76;100.00;60493.00;5052028;28;44997;-81
2022/09/16 06:00:59;;;;;;;;;9.50;9.00;;;;;-144.76;100.00;60493.00;5053021;28;45223;-81
2022/09/16 06:03:25;;;;;;;;;9.00;9.00;;;;;-144.76;100.00;60493.00;5052737;28;45617;-81
2022/09/16 06:05:51;;;;;;;;;8.50;8.50;;;;;-144.76;100.00;60493.00;5053116;28;45439;-81
2022/09/16 06:08:16;;;;;;;;;9.25;9.25;;;;;-144.76;100.00;60493.00;5051857;28;45082;-80
2022/09/16 06:10:41;;;;;;;;;10.00;9.00;;;;;-144.76;100.00;60493.00;5052289;28;53883;-80
2022/09/16 06:13:07;;;;;;;;;10.67;10.67;;;;;-144.76;100.00;60493.00;5050917;28;62203;-81
2022/09/16 06:15:33;;;;;;;;;10.25;10.25;;;;;-144.76;100.00;60493.00;5052492;28;44950;-80
2022/09/16 06:17:58;;;;;;;;;12.25;11.00;;;;;-144.76;100.00;60493.00;5052546;28;45159;-81
2022/09/16 06:20:24;;;;;;;;;11.75;10.75;;;;;-144.76;100.00;60493.00;5052744;28;44951;-80
2022/09/16 06:22:49;;;;;;;;;10.50;10.25;;;;;-144.76;100.00;60493.00;5052258;28;45629;-80
2022/09/16 06:25:15;;;;;;;;;11.25;11.00;;;;;-144.76;100.00;60493.00;5052287;28;45186;-81
2022/09/16 06:27:40;;;;;;;;;10.00;9.25;;;;;-144.76;100.00;60493.00;5051751;28;45324;-81
2022/09/16 06:30:06;;;;;;;;;13.00;12.00;;;;;-144.76;100.00;60493.00;5052045;28;48832;-80
2022/09/16 06:32:32;;;;;;;;;13.25;12.00;;;;;-144.76;100.00;60493.00;5052355;28;45299;-80
2022/09/16 06:34:57;;;;;;;;;14.25;12.75;;;;;-144.76;100.00;60493.00;5034136;28;45445;-79
2022/09/16 06:37:22;;;;;;;;;11.75;10.50;;;;;-144.76;100.00;60493.00;5033398;28;61565;-79
2022/09/16 06:39:48;;;;;;;;;14.50;13.25;;;;;-144.76;100.00;60493.00;5052691;28;44843;-81
2022/09/16 06:42:13;;;;;;;;;14.00;14.00;;;;;-144.76;100.00;60493.00;5051368;28;45119;-80
2022/09/16 06:44:42;;;;;;;;;14.50;14.50;;;;;-144.76;100.00;60493.00;5052206;28;45076;-82
2022/09/16 06:47:07;;;;;;;;;11.50;11.50;;;;;-144.76;100.00;60493.00;5051804;28;45088;-81
2022/09/16 06:49:32;;;;;;;;;14.00;12.50;;;;;-144.76;100.00;60493.00;5052342;28;45151;-80
2022/09/16 06:51:58;;;;;;;;;11.25;11.00;;;;;-144.76;100.00;60493.00;5051981;28;45529;-81
2022/09/16 06:54:23;;;;;;;;;11.33;11.00;;;;;-144.76;100.00;60493.00;5051387;28;61431;-81
2022/09/16 06:56:49;;;;;;;;;10.50;10.50;;;;;-144.76;100.00;60493.00;5051668;28;45056;-81
2022/09/16 06:59:14;;;;;;;;;13.25;12.50;;;;;-144.76;100.00;60493.00;5051467;28;45051;-82
2022/09/16 07:01:40;;;;;;;;;19.00;17.50;;;;;-144.76;100.00;60493.00;5051434;28;45243;-81
2022/09/16 07:04:09;;;;;;;;;15.50;14.25;;;;;-144.76;100.00;60493.00;5051968;28;45425;-81
2022/09/16 07:06:35;;;;;;;;;13.00;12.25;;;;;-144.76;100.00;60493.00;5051431;28;44904;-80
2022/09/16 07:09:01;;;;;;;;;13.50;12.75;;;;;-144.76;100.00;60493.00;5052362;28;44895;-81
2022/09/16 07:11:27;;;;;;;;;14.00;14.00;;;;;-144.76;100.00;60493.00;5051038;28;46118;-81
2022/09/16 07:13:53;;;;;;;;;17.25;15.00;;;;;-144.76;100.00;60493.00;5051601;28;45026;-81
2022/09/16 07:16:24;;;;;;;;;16.50;15.50;;;;;-144.76;100.00;60493.00;5052048;28;45123;-81
2022/09/16 07:18:57;;;;;;;;;16.50;16.00;;;;;-144.76;100.00;60493.00;5051584;28;44977;-81
2022/09/16 07:21:27;;;;;;;;;16.25;15.25;;;;;-144.76;100.00;60493.00;5032254;28;47080;-81
2022/09/16 07:23:55;;;;;;;;;19.00;17.50;;;;;-144.76;100.00;60493.00;5051428;28;45516;-82
2022/09/16 07:26:25;;;;;;;;;16.75;16.00;;;;;-144.76;100.00;60493.00;5051503;28;45107;-81
2022/09/16 07:28:51;;;;;;;;;19.00;17.50;;;;;-144.76;100.00;60493.00;5051654;28;44966;-82
2022/09/16 07:31:26;;;;;;;;;17.00;15.75;;;;;-144.76;100.00;60493.00;5033376;28;48095;-80
2022/09/16 07:33:54;;;;;;;;;20.00;17.50;;;;;-144.76;100.00;60493.00;5051787;28;45163;-80
2022/09/16 07:36:23;;;;;;;;;16.75;16.00;;;;;-144.76;100.00;60493.00;5033099;28;45168;-80
2022/09/16 07:38:50;;;;;;;;;18.75;18.00;;;;;-144.76;100.00;60493.00;5051600;28;45147;-80
2022/09/16 07:41:18;;;;;;;;;15.75;15.50;;;;;-144.76;100.00;60493.00;5033109;28;47217;-80
2022/09/16 07:43:43;;;;;;;;;17.50;15.75;;;;;-144.76;100.00;60493.00;5050777;28;45558;-80
2022/09/16 07:46:10;;;;;;;;;19.00;18.00;;;;;-144.76;100.00;60493.00;5051380;28;45009;-80
2022/09/16 07:48:36;;;;;;;;;15.50;15.25;;;;;-144.76;100.00;60493.00;5051029;28;44868;-80
2022/09/16 07:51:18;;;;;;;;;14.75;14.00;;;;;-144.76;100.00;60493.00;5051018;28;45726;-80
2022/09/16 07:53:44;;;;;;;;;12.75;11.75;;;;;-144.76;100.00;60493.00;5051202;28;45240;-81
2022/09/16 07:56:11;;;;;;;;;17.00;16.00;;;;;-144.76;100.00;60493.00;5051263;28;45098;-80
2022/09/16 07:58:38;;;;;;;;;16.00;15.75;;;;;-144.76;100.00;60493.00;5049725;28;45206;-81
2022/09/16 08:01:04;;;;;;;;;16.25;15.25;;;;;-144.76;100.00;60493.00;5051206;28;45042;-81
2022/09/16 08:03:30;;;;;;;;;20.50;16.50;;;;;-144.76;100.00;60493.00;5051235;28;45426;-81
2022/09/16 08:06:01;;;;;;;;;16.00;15.25;;;;;-144.76;100.00;60493.00;5051218;28;45037;-80
2022/09/16 08:08:26;;;;;;;;;16.75;15.50;;;;;-144.76;100.00;60493.00;5051075;28;45013;-81
2022/09/16 08:10:55;;;;;;;;;16.25;14.00;;;;;-144.76;100.00;60493.00;5050750;28;45676;-80
2022/09/16 08:13:21;;;;;;;;;17.50;15.75;;;;;-144.76;100.00;60493.00;5049903;28;45152;-80
2022/09/16 08:15:47;;;;;;;;;17.00;15.25;;;;;-144.76;100.00;60493.00;5051337;28;45029;-80
2022/09/16 08:18:12;;;;;;;;;14.25;12.50;;;;;-144.76;100.00;60493.00;5050844;28;44986;-81
2022/09/16 08:20:37;;;;;;;;;12.50;12.50;;;;;-144.76;100.00;60493.00;5050793;28;45127;-80
2022/09/16 08:23:03;;;;;;;;;10.00;9.50;;;;;-144.76;100.00;60493.00;5050094;28;60204;-80
2022/09/16 08:25:28;;;;;;;;;8.00;6.75;;;;;-144.76;100.00;60493.00;5032861;28;45030;-80
2022/09/16 08:27:54;;;;;;;;;8.00;8.00;;;;;-144.76;100.00;60493.00;5050227;28;45076;-80
2022/09/16 08:30:20;;;;;;;;;8.50;7.25;;;;;-144.76;100.00;60493.00;5050188;28;45619;-80
2022/09/16 08:32:45;;;;;;;;;5.25;5.25;;;;;-144.76;100.00;60493.00;5055216;28;45102;-81
2022/09/16 08:35:13;;;;;;;;;6.75;6.50;;;;;-144.76;100.00;60493.00;5057601;28;45283;-80
2022/09/16 08:37:39;;;;;;;;;5.75;5.75;;;;;-144.76;100.00;60493.00;5056019;28;45355;-80
2022/09/16 08:40:05;;;;;;;;;3.75;3.25;;;;;-144.76;100.00;60493.00;5039053;28;47978;-80
2022/09/16 08:42:54;;;;;;;;;5.00;4.50;;;;;-144.76;100.00;60493.00;5056718;28;45539;-80
2022/09/16 08:45:39;;;;;;;;;3.50;3.50;;;;;-144.76;100.00;60493.00;5057547;28;45120;-80
2022/09/16 08:48:34;;;;;;;;;5.00;4.00;;;;;-144.76;100.00;60493.00;5057590;28;45029;-80
2022/09/16 08:51:01;;;;;;;;;4.25;2.75;;;;;-144.76;100.00;60493.00;5038805;28;47488;-80
2022/09/16 08:53:36;;;;;;;;;2.75;2.75;;;;;-144.76;100.00;60493.00;5056788;28;45428;-80
2022/09/16 08:56:06;;;;;;;;;1.75;1.75;;;;;-144.76;100.00;60493.00;5057201;28;45109;-80
2022/09/16 08:58:41;;;;;;;;;2.50;1.75;;;;;-144.76;100.00;60493.00;5056876;28;45409;-80
2022/09/16 09:01:19;;;;;;;;;3.25;2.75;;;;;-144.76;100.00;60493.00;5056920;28;45657;-80
2022/09/16 09:03:46;;;;;;;;;1.75;1.25;;;;;-144.76;100.00;60493.00;5056613;28;45116;-80
2022/09/16 09:06:25;;;;;;;;;2.25;2.25;;;;;-144.76;100.00;60493.00;5057495;28;45053;-80
2022/09/16 09:09:18;;;;;;;;;2.50;2.50;;;;;-144.76;100.00;60493.00;5049757;28;45010;-80
2022/09/16 09:11:47;;;;;;;;;3.75;3.75;;;;;-144.76;100.00;60493.00;5055861;28;45475;-81
2022/09/16 09:14:23;;;;;;;;;2.75;2.75;;;;;-144.76;100.00;60493.00;5056966;28;45519;-81
2022/09/16 09:17:08;;;;;;;;;3.00;2.75;;;;;-144.76;100.00;60493.00;5057321;28;45036;-80
2022/09/16 09:20:12;;;;;;;;;3.00;2.50;;;;;-144.76;100.00;60493.00;5057061;28;45044;-80
2022/09/16 09:23:14;;;;;;;;;2.00;2.00;;;;;-144.76;100.00;60493.00;4994607;28;45936;-80
2022/09/16 09:26:05;;;;;;;;;2.00;2.00;;;;;-144.76;100.00;60493.00;5057153;28;45126;-80
2022/09/16 09:28:33;;;;;;;;;2.75;2.75;;;;;-144.76;100.00;60493.00;5056672;28;45268;-80
2022/09/16 09:31:23;;;;;;;;;3.00;3.00;;;;;-144.76;100.00;60493.00;5056511;28;45107;-80
2022/09/16 09:34:09;;;;;;;;;3.75;2.75;;;;;-144.76;100.00;60493.00;5057009;28;45771;-80
2022/09/16 09:36:39;;;;;;;;;3.75;3.75;;;;;-144.76;100.00;60493.00;5056084;28;45453;-81
2022/09/16 09:39:48;;;;;;;;;3.50;3.25;;;;;-144.76;100.00;60493.00;5056609;28;44977;-80
2022/09/16 09:42:44;;;;;;;;;2.00;2.00;;;;;-144.76;100.00;60493.00;5009499;28;45494;-80
2022/09/16 09:45:16;;;;;;;;;4.25;4.00;;;;;-144.76;100.00;60493.00;5031218;28;46244;-80
2022/09/16 09:47:49;;;;;;;;;3.25;2.75;;;;;-144.76;100.00;60493.00;5053059;28;45294;-80
2022/09/16 09:50:27;;;;;;;;;3.25;3.25;;;;;-144.76;100.00;60493.00;5053462;28;44977;-80
2022/09/16 09:52:57;;;;;;;;;3.00;2.50;;;;;-144.76;100.00;60493.00;5053068;28;45097;-80
2022/09/16 09:55:30;;;;;;;;;2.00;2.00;;;;;-144.76;100.00;60493.00;5053315;28;45499;-80
2022/09/16 09:58:05;;;;;;;;;2.25;2.25;;;;;-144.76;100.00;60493.00;5052488;28;45112;-79
2022/09/16 10:00:30;;;;;;;;;3.25;3.00;;;;;-144.76;100.00;60493.00;5053389;28;45151;-80
2022/09/16 10:03:10;;;;;;;;;4.50;4.50;;;;;-144.76;100.00;60493.00;5053395;28;44950;-80
2022/09/16 10:05:36;;;;;;;;;4.50;4.00;;;;;-144.76;100.00;60493.00;5052652;28;45794;-80
2022/09/16 10:08:10;;;;;;;;;3.00;3.00;;;;;-144.76;100.00;60493.00;5052740;28;45206;-81
2022/09/16 10:10:44;;;;;;;;;3.50;3.50;;;;;-144.76;100.00;60493.00;5052845;28;45226;-80
2022/09/16 10:13:11;;;;;;;;;4.00;3.00;;;;;-144.76;100.00;60493.00;5050561;28;45498;-80
2022/09/16 10:15:37;;;;;;;;;4.00;4.00;;;;;-144.76;100.00;60493.00;5052531;28;45641;-80
2022/09/16 10:18:20;;;;;;;;;5.00;4.00;;;;;-144.76;100.00;60493.00;5052476;28;45023;-80
2022/09/16 10:20:56;;;;;;;;;4.50;4.50;;;;;-144.76;100.00;60493.00;5052710;28;44981;-80
2022/09/16 10:23:24;;;;;;;;;4.00;3.75;;;;;-144.76;100.00;60493.00;5052826;28;45074;-80
2022/09/16 10:26:16;;;;;;;;;4.00;4.00;;;;;-144.76;100.00;60493.00;5034152;28;47232;-80
2022/09/16 10:29:02;;;;;;;;;4.00;3.75;;;;;-144.76;100.00;60493.00;5050794;28;45560;-80
2022/09/16 10:31:35;;;;;;;;;5.00;3.75;;;;;-144.76;100.00;60493.00;5033793;28;45043;-80
2022/09/16 10:34:03;;;;;;;;;5.00;4.00;;;;;-144.76;100.00;60493.00;5052493;28;45037;-80
2022/09/16 10:36:33;;;;;;;;;4.25;4.25;;;;;-144.76;100.00;60493.00;5052176;28;45213;-80
2022/09/16 10:39:03;;;;;;;;;4.50;4.00;;;;;-144.76;100.00;60493.00;5052573;28;45151;-81
2022/09/16 10:41:46;;;;;;;;;4.75;3.75;;;;;-144.76;100.00;60493.00;5052157;28;45099;-80
2022/09/16 10:44:32;;;;;;;;;3.00;3.00;;;;;-144.76;100.00;60493.00;5052191;28;44955;-80
2022/09/16 10:47:09;;;;;;;;;4.00;4.00;;;;;-144.76;100.00;60493.00;5051591;28;45031;-80
2022/09/16 10:49:43;;;;;;;;;4.25;3.75;;;;;-144.76;100.00;60493.00;5052362;28;45449;-80
2022/09/16 10:52:15;;;;;;;;;3.25;3.25;;;;;-144.76;100.00;60493.00;5052193;28;45030;-80
2022/09/16 10:54:41;;;;;;;;;2.25;2.00;;;;;-144.76;100.00;60493.00;5051925;28;44954;-80
2022/09/16 10:57:25;;;;;;;;;2.25;2.25;;;;;-144.76;100.00;60493.00;5049689;28;45972;-81
2022/09/16 11:00:10;;;;;;;;;3.00;2.75;;;;;-144.76;100.00;60493.00;5051889;28;45486;-81
2022/09/16 11:02:53;;;;;;;;;2.00;1.75;;;;;-144.76;100.00;60493.00;5052119;28;45029;-80
2022/09/16 11:05:37;;;;;;;;;3.00;3.00;;;;;-144.76;100.00;60493.00;5051841;28;45060;-79
2022/09/16 11:08:28;;;;;;;;;2.00;2.00;;;;;-144.76;100.00;60493.00;5033394;28;47461;-80
2022/09/16 11:11:18;;;;;;;;;3.00;3.00;;;;;-144.76;100.00;60493.00;5052216;28;45573;-80
2022/09/16 11:14:09;;;;;;;;;3.00;2.00;;;;;-144.76;100.00;60493.00;5033485;28;45133;-80
2022/09/16 11:16:34;;;;;;;;;2.75;2.75;;;;;-144.76;100.00;60493.00;5051526;28;45224;-80
2022/09/16 11:19:10;;;;;;;;;3.00;3.00;;;;;-144.76;100.00;60493.00;5051346;28;52487;-80
2022/09/16 11:21:54;;;;;;;;;3.00;2.00;;;;;-144.76;100.00;60493.00;5051433;28;45493;-81
2022/09/16 11:24:51;;;;;;;;;2.75;2.00;;;;;-144.76;100.00;60493.00;5033482;28;45002;-80
2022/09/16 11:27:42;;;;;;;;;2.00;2.00;;;;;-144.76;100.00;60493.00;5050323;28;44986;-80
2022/09/16 11:30:13;;;;;;;;;1.75;1.75;;;;;-144.76;100.00;60493.00;5029809;28;47406;-80
2022/09/16 11:33:03;;;;;;;;;2.00;2.00;;;;;-144.76;100.00;60493.00;5051315;28;45012;-81